createdAt,value
2016-11-03T00:00:03.370Z,0
2016-11-03T00:01:03.071Z,0
2016-11-03T00:02:03.421Z,0
2016-11-03T00:03:03.436Z,0
2016-11-03T00:04:03.428Z,0
2016-11-03T00:05:03.135Z,0
2016-11-03T00:06:03.807Z,0
2016-11-03T00:07:03.165Z,0
2016-11-03T00:08:03.196Z,0
2016-11-03T00:09:03.512Z,0
2016-11-03T00:10:03.867Z,0
2016-11-03T00:11:03.233Z,0
2016-11-03T00:12:03.252Z,0
2016-11-03T00:13:03.269Z,0
2016-11-03T00:14:02.965Z,0
2016-11-03T00:15:03.615Z,0
2016-11-03T00:16:03.314Z,0
2016-11-03T00:17:03.020Z,0
2016-11-03T00:18:03.043Z,0
2016-11-03T00:19:03.682Z,0
2016-11-03T00:20:04.024Z,0
2016-11-03T00:21:03.411Z,0
2016-11-03T00:22:04.047Z,0
2016-11-03T00:23:03.747Z,0
2016-11-03T00:24:03.461Z,0
2016-11-03T00:25:04.098Z,0
2016-11-03T00:26:04.114Z,0
2016-11-03T00:27:03.820Z,0
2016-11-03T00:28:03.517Z,0
2016-11-03T00:29:03.537Z,0
2016-11-03T00:30:03.549Z,0
2016-11-03T00:31:03.884Z,0
2016-11-03T00:32:03.589Z,0
2016-11-03T00:33:03.597Z,0
2016-11-03T00:34:03.617Z,0
2016-11-03T00:35:03.990Z,0
2016-11-03T00:36:03.669Z,0
2016-11-03T00:37:03.350Z,0
2016-11-03T00:38:03.715Z,0
2016-11-03T00:39:03.709Z,0
2016-11-03T00:40:03.737Z,0
2016-11-03T00:41:03.749Z,0
2016-11-03T00:42:03.752Z,0
2016-11-03T00:43:03.461Z,0
2016-11-03T00:44:04.106Z,0
2016-11-03T00:45:03.490Z,0
2016-11-03T00:46:03.503Z,0
2016-11-03T00:47:03.558Z,0
2016-11-03T00:48:04.480Z,0
2016-11-03T00:49:03.867Z,0
2016-11-03T00:50:04.222Z,0
2016-11-03T00:51:03.940Z,0
2016-11-03T00:52:03.924Z,0
2016-11-03T00:53:03.941Z,0
2016-11-03T00:54:03.635Z,0
2016-11-03T00:55:03.655Z,0
2016-11-03T00:56:04.332Z,0
2016-11-03T00:57:04.005Z,0
2016-11-03T00:58:04.354Z,0
2016-11-03T00:59:04.663Z,0
2016-11-03T01:00:03.737Z,0
2016-11-03T01:01:04.383Z,0
2016-11-03T01:02:04.091Z,0
2016-11-03T01:03:04.768Z,0
2016-11-03T01:04:03.817Z,0
2016-11-03T01:05:04.144Z,0
2016-11-03T01:06:04.155Z,0
2016-11-03T01:07:04.485Z,0
2016-11-03T01:08:04.191Z,0
2016-11-03T01:09:04.211Z,0
2016-11-03T01:10:04.231Z,0
2016-11-03T01:11:04.553Z,0
2016-11-03T01:12:04.888Z,0
2016-11-03T01:13:04.589Z,0
2016-11-03T01:14:03.973Z,0
2016-11-03T01:15:04.942Z,0
2016-11-03T01:16:04.638Z,0
2016-11-03T01:17:04.028Z,0
2016-11-03T01:18:04.671Z,0
2016-11-03T01:19:04.385Z,0
2016-11-03T01:20:05.018Z,0
2016-11-03T01:21:04.722Z,0
2016-11-03T01:22:04.453Z,0
2016-11-03T01:23:04.438Z,0
2016-11-03T01:24:04.772Z,0
2016-11-03T01:25:04.470Z,0
2016-11-03T01:26:04.804Z,0
2016-11-03T01:27:04.817Z,0
2016-11-03T01:28:05.155Z,0
2016-11-03T01:29:04.545Z,0
2016-11-03T01:30:04.555Z,0
2016-11-03T01:31:05.007Z,0
2016-11-03T01:32:04.587Z,0
2016-11-03T01:33:04.636Z,0
2016-11-03T01:34:04.659Z,0
2016-11-03T01:35:04.636Z,0
2016-11-03T01:36:04.651Z,0
2016-11-03T01:37:04.676Z,0
2016-11-03T01:38:05.019Z,0
2016-11-03T01:39:05.039Z,0
2016-11-03T01:40:05.348Z,0
2016-11-03T01:41:05.053Z,0
2016-11-03T01:42:04.750Z,0
2016-11-03T01:43:04.769Z,0
2016-11-03T01:44:04.800Z,0
2016-11-03T01:45:04.803Z,0
2016-11-03T01:46:05.197Z,0
2016-11-03T01:47:05.165Z,0
2016-11-03T01:48:05.176Z,0
2016-11-03T01:49:05.030Z,0
2016-11-03T01:50:04.911Z,0
2016-11-03T01:51:04.904Z,0
2016-11-03T01:52:04.598Z,0
2016-11-03T01:53:05.256Z,0
2016-11-03T01:54:05.266Z,0
2016-11-03T01:55:04.969Z,0
2016-11-03T01:56:04.674Z,0
2016-11-03T01:57:05.314Z,0
2016-11-03T01:58:05.331Z,0
2016-11-03T01:59:05.350Z,0
2016-11-03T02:00:05.367Z,0
2016-11-03T02:01:05.695Z,0
2016-11-03T02:02:05.714Z,0
2016-11-03T02:03:05.409Z,0
2016-11-03T02:04:05.160Z,0
2016-11-03T02:05:04.815Z,0
2016-11-03T02:06:05.782Z,0
2016-11-03T02:07:05.879Z,0
2016-11-03T02:08:04.867Z,0
2016-11-03T02:09:04.880Z,0
2016-11-03T02:10:05.527Z,0
2016-11-03T02:11:04.953Z,0
2016-11-03T02:12:05.245Z,0
2016-11-03T02:13:05.631Z,0
2016-11-03T02:14:05.595Z,0
2016-11-03T02:15:05.612Z,0
2016-11-03T02:16:05.620Z,0
2016-11-03T02:17:05.023Z,0
2016-11-03T02:18:05.341Z,0
2016-11-03T02:19:05.670Z,0
2016-11-03T02:20:05.060Z,0
2016-11-03T02:21:05.713Z,0
2016-11-03T02:22:05.753Z,0
2016-11-03T02:23:05.102Z,0
2016-11-03T02:24:05.755Z,0
2016-11-03T02:25:05.768Z,0
2016-11-03T02:26:05.799Z,0
2016-11-03T02:27:05.487Z,0
2016-11-03T02:28:05.817Z,0
2016-11-03T02:29:05.839Z,0
2016-11-03T02:30:05.542Z,0
2016-11-03T02:31:05.888Z,0
2016-11-03T02:32:05.567Z,0
2016-11-03T02:33:05.899Z,0
2016-11-03T02:34:06.257Z,0
2016-11-03T02:35:05.302Z,0
2016-11-03T02:36:05.953Z,0
2016-11-03T02:37:05.966Z,0
2016-11-03T02:38:06.015Z,0
2016-11-03T02:39:05.383Z,0
2016-11-03T02:40:06.011Z,0
2016-11-03T02:41:05.408Z,0
2016-11-03T02:42:06.067Z,0
2016-11-03T02:43:05.951Z,0
2016-11-03T02:44:05.765Z,0
2016-11-03T02:45:06.416Z,0
2016-11-03T02:46:05.795Z,0
2016-11-03T02:47:06.443Z,0
2016-11-03T02:48:06.155Z,0
2016-11-03T02:49:05.842Z,0
2016-11-03T02:50:05.901Z,0
2016-11-03T02:51:05.557Z,0
2016-11-03T02:52:05.894Z,0
2016-11-03T02:53:05.910Z,0
2016-11-03T02:54:06.242Z,0
2016-11-03T02:55:05.936Z,0
2016-11-03T02:56:05.964Z,0
2016-11-03T02:57:05.657Z,0
2016-11-03T02:58:05.999Z,0
2016-11-03T02:59:06.008Z,0
2016-11-03T03:00:06.382Z,0
2016-11-03T03:01:05.727Z,0
2016-11-03T03:02:06.054Z,0
2016-11-03T03:03:06.406Z,0
2016-11-03T03:04:06.398Z,0
2016-11-03T03:05:06.737Z,0
2016-11-03T03:06:06.124Z,0
2016-11-03T03:07:06.763Z,0
2016-11-03T03:08:06.461Z,0
2016-11-03T03:09:05.861Z,0
2016-11-03T03:10:06.233Z,0
2016-11-03T03:11:06.511Z,0
2016-11-03T03:12:06.214Z,0
2016-11-03T03:13:06.549Z,0
2016-11-03T03:14:06.560Z,0
2016-11-03T03:15:06.642Z,0
2016-11-03T03:16:06.593Z,0
2016-11-03T03:17:05.978Z,0
2016-11-03T03:18:06.351Z,0
2016-11-03T03:19:06.642Z,0
2016-11-03T03:20:06.028Z,0
2016-11-03T03:21:06.356Z,0
2016-11-03T03:22:06.726Z,0
2016-11-03T03:23:06.718Z,0
2016-11-03T03:24:06.725Z,0
2016-11-03T03:25:06.437Z,0
2016-11-03T03:26:06.764Z,0
2016-11-03T03:27:06.766Z,0
2016-11-03T03:28:07.099Z,0
2016-11-03T03:29:06.817Z,0
2016-11-03T03:30:06.827Z,0
2016-11-03T03:31:06.835Z,0
2016-11-03T03:32:06.225Z,0
2016-11-03T03:33:07.177Z,0
2016-11-03T03:34:06.561Z,0
2016-11-03T03:35:06.259Z,0
2016-11-03T03:36:06.592Z,0
2016-11-03T03:37:06.293Z,0
2016-11-03T03:38:06.941Z,0
2016-11-03T03:39:06.954Z,0
2016-11-03T03:40:06.341Z,0
2016-11-03T03:41:07.304Z,0
2016-11-03T03:42:06.999Z,0
2016-11-03T03:43:07.345Z,0
2016-11-03T03:44:06.407Z,0
2016-11-03T03:46:06.753Z,0
2016-11-03T03:47:06.764Z,0
2016-11-03T03:48:06.794Z,0
2016-11-03T03:49:07.116Z,0
2016-11-03T03:50:07.122Z,0
2016-11-03T03:51:06.852Z,0
2016-11-03T03:52:07.160Z,0
2016-11-03T03:53:07.174Z,0
2016-11-03T03:54:07.188Z,0
2016-11-03T03:55:06.891Z,0
2016-11-03T03:56:07.547Z,0
2016-11-03T03:57:06.924Z,0
2016-11-03T03:58:07.255Z,0
2016-11-03T03:59:06.956Z,0
2016-11-03T04:00:07.285Z,0
2016-11-03T04:01:06.991Z,0
2016-11-03T04:02:07.002Z,0
2016-11-03T04:03:07.030Z,0
2016-11-03T04:04:07.348Z,0
2016-11-03T04:05:07.694Z,0
2016-11-03T04:06:07.071Z,0
2016-11-03T04:07:07.392Z,0
2016-11-03T04:08:07.461Z,0
2016-11-03T04:09:07.130Z,0
2016-11-03T04:10:06.809Z,0
2016-11-03T04:11:07.457Z,0
2016-11-03T04:12:07.161Z,0
2016-11-03T04:13:06.881Z,0
2016-11-03T04:14:07.822Z,0
2016-11-03T04:15:07.245Z,0
2016-11-03T04:16:07.534Z,0
2016-11-03T04:17:07.875Z,0
2016-11-03T04:18:07.248Z,0
2016-11-03T04:19:07.590Z,0
2016-11-03T04:20:06.966Z,0
2016-11-03T04:21:07.618Z,0
2016-11-03T04:22:07.315Z,0
2016-11-03T04:23:08.005Z,0
2016-11-03T04:24:07.661Z,0
2016-11-03T04:25:07.996Z,0
2016-11-03T04:26:08.019Z,0
2016-11-03T04:27:07.725Z,0
2016-11-03T04:28:07.416Z,0
2016-11-03T04:29:07.113Z,0
2016-11-03T04:30:07.768Z,0
2016-11-03T04:31:07.786Z,0
2016-11-03T04:32:07.155Z,0
2016-11-03T04:33:07.503Z,0
2016-11-03T04:34:07.507Z,0
2016-11-03T04:35:07.857Z,0
2016-11-03T04:36:08.165Z,0
2016-11-03T04:37:07.552Z,0
2016-11-03T04:38:07.562Z,0
2016-11-03T04:39:07.577Z,0
2016-11-03T04:40:07.313Z,0
2016-11-03T04:41:07.303Z,0
2016-11-03T04:42:07.633Z,0
2016-11-03T04:43:07.328Z,0
2016-11-03T04:44:07.660Z,0
2016-11-03T04:45:08.001Z,0
2016-11-03T04:46:08.012Z,0
2016-11-03T04:47:07.394Z,0
2016-11-03T04:48:07.723Z,0
2016-11-03T04:49:07.739Z,0
2016-11-03T04:50:08.089Z,0
2016-11-03T04:51:07.774Z,0
2016-11-03T04:52:07.470Z,0
2016-11-03T04:53:07.894Z,0
2016-11-03T04:54:08.135Z,0
2016-11-03T04:55:08.150Z,0
2016-11-03T04:56:07.852Z,0
2016-11-03T04:57:07.896Z,0
2016-11-03T04:58:07.894Z,0
2016-11-03T04:59:07.896Z,0
2016-11-03T05:00:07.609Z,0
2016-11-03T05:01:07.936Z,0
2016-11-03T05:02:07.939Z,0
2016-11-03T05:03:08.006Z,0
2016-11-03T05:04:07.974Z,0
2016-11-03T05:05:08.311Z,0
2016-11-03T05:06:08.320Z,0
2016-11-03T05:07:08.017Z,0
2016-11-03T05:08:07.716Z,0
2016-11-03T05:09:08.045Z,0
2016-11-03T05:10:08.070Z,0
2016-11-03T05:11:07.770Z,0
2016-11-03T05:12:08.107Z,0
2016-11-03T05:13:08.459Z,0
2016-11-03T05:14:08.131Z,0
2016-11-03T05:15:08.144Z,0
2016-11-03T05:16:08.158Z,0
2016-11-03T05:17:08.195Z,0
2016-11-03T05:18:08.198Z,0
2016-11-03T05:19:07.888Z,0
2016-11-03T05:20:07.927Z,0
2016-11-03T05:21:08.235Z,0
2016-11-03T05:22:08.259Z,0
2016-11-03T05:23:08.271Z,0
2016-11-03T05:24:08.608Z,0
2016-11-03T05:25:08.305Z,0
2016-11-03T05:26:08.318Z,0
2016-11-03T05:27:08.657Z,0
2016-11-03T05:28:08.976Z,0
2016-11-03T05:29:08.363Z,0
2016-11-03T05:30:08.375Z,0
2016-11-03T05:31:08.397Z,0
2016-11-03T05:32:08.727Z,0
2016-11-03T05:33:08.426Z,0
2016-11-03T05:34:08.450Z,0
2016-11-03T05:35:08.462Z,0
2016-11-03T05:36:08.790Z,0
2016-11-03T05:37:08.824Z,0
2016-11-03T05:38:08.527Z,0
2016-11-03T05:39:08.542Z,0
2016-11-03T05:40:08.851Z,0
2016-11-03T05:41:09.185Z,0
2016-11-03T05:42:08.911Z,0
2016-11-03T05:43:08.591Z,0
2016-11-03T05:44:09.243Z,0
2016-11-03T05:45:08.294Z,4
2016-11-03T05:46:08.318Z,4
2016-11-03T05:47:08.643Z,4
2016-11-03T05:48:08.434Z,4
2016-11-03T05:49:08.674Z,4
2016-11-03T05:50:09.010Z,4
2016-11-03T05:51:09.021Z,0
2016-11-03T05:52:09.369Z,0
2016-11-03T05:53:08.740Z,0
2016-11-03T05:54:09.384Z,4
2016-11-03T05:55:08.453Z,4
2016-11-03T05:56:08.526Z,4
2016-11-03T05:57:08.815Z,4
2016-11-03T05:58:09.133Z,0
2016-11-03T05:59:08.835Z,4
2016-11-03T06:00:08.883Z,4
2016-11-03T06:01:08.861Z,4
2016-11-03T06:02:09.192Z,4
2016-11-03T06:03:09.211Z,8
2016-11-03T06:04:08.933Z,4
2016-11-03T06:05:08.943Z,4
2016-11-03T06:06:09.590Z,8
2016-11-03T06:07:09.272Z,8
2016-11-03T06:08:09.283Z,8
2016-11-03T06:09:08.994Z,8
2016-11-03T06:10:09.325Z,12
2016-11-03T06:11:08.703Z,8
2016-11-03T06:12:08.725Z,8
2016-11-03T06:13:09.365Z,12
2016-11-03T06:14:09.396Z,8
2016-11-03T06:15:09.084Z,12
2016-11-03T06:16:08.779Z,12
2016-11-03T06:17:09.110Z,12
2016-11-03T06:18:09.147Z,12
2016-11-03T06:19:09.157Z,12
2016-11-03T06:20:09.477Z,16
2016-11-03T06:21:08.869Z,12
2016-11-03T06:22:08.873Z,16
2016-11-03T06:23:09.202Z,12
2016-11-03T06:24:09.536Z,12
2016-11-03T06:25:09.237Z,16
2016-11-03T06:26:08.941Z,12
2016-11-03T06:27:09.581Z,12
2016-11-03T06:28:09.284Z,12
2016-11-03T06:29:09.619Z,12
2016-11-03T06:30:09.631Z,12
2016-11-03T06:31:09.014Z,16
2016-11-03T06:32:09.355Z,12
2016-11-03T06:33:09.696Z,16
2016-11-03T06:34:09.065Z,16
2016-11-03T06:35:09.392Z,16
2016-11-03T06:36:09.408Z,20
2016-11-03T06:37:09.425Z,20
2016-11-03T06:38:09.754Z,24
2016-11-03T06:39:09.453Z,24
2016-11-03T06:40:09.819Z,28
2016-11-03T06:41:09.190Z,32
2016-11-03T06:42:09.503Z,36
2016-11-03T06:43:09.859Z,36
2016-11-03T06:44:09.875Z,40
2016-11-03T06:45:09.550Z,44
2016-11-03T06:46:09.244Z,48
2016-11-03T06:47:09.928Z,52
2016-11-03T06:48:09.600Z,56
2016-11-03T06:49:09.646Z,64
2016-11-03T06:50:09.629Z,68
2016-11-03T06:51:09.641Z,80
2016-11-03T06:52:09.977Z,96
2016-11-03T06:53:09.679Z,100
2016-11-03T06:54:09.382Z,108
2016-11-03T06:55:09.703Z,112
2016-11-03T06:56:09.411Z,108
2016-11-03T06:57:09.422Z,104
2016-11-03T06:58:09.772Z,104
2016-11-03T06:59:09.802Z,96
2016-11-03T07:00:10.098Z,88
2016-11-03T07:01:09.838Z,80
2016-11-03T07:02:10.128Z,76
2016-11-03T07:03:09.857Z,76
2016-11-03T07:04:10.484Z,80
2016-11-03T07:05:10.178Z,76
2016-11-03T07:06:10.510Z,76
2016-11-03T07:07:09.890Z,76
2016-11-03T07:08:10.268Z,84
2016-11-03T07:09:09.921Z,84
2016-11-03T07:10:09.944Z,88
2016-11-03T07:11:09.643Z,92
2016-11-03T07:12:09.973Z,100
2016-11-03T07:13:10.304Z,96
2016-11-03T07:14:10.631Z,92
2016-11-03T07:15:10.340Z,92
2016-11-03T07:16:10.366Z,92
2016-11-03T07:17:10.054Z,100
2016-11-03T07:18:09.756Z,100
2016-11-03T07:19:10.397Z,100
2016-11-03T07:20:10.099Z,96
2016-11-03T07:21:10.447Z,96
2016-11-03T07:22:10.445Z,100
2016-11-03T07:23:10.148Z,96
2016-11-03T07:24:10.811Z,96
2016-11-03T07:25:10.189Z,104
2016-11-03T07:26:10.228Z,92
2016-11-03T07:27:10.518Z,104
2016-11-03T07:28:10.228Z,104
2016-11-03T07:29:10.268Z,104
2016-11-03T07:30:10.570Z,104
2016-11-03T07:31:10.906Z,104
2016-11-03T07:32:10.604Z,112
2016-11-03T07:33:10.011Z,116
2016-11-03T07:34:10.326Z,120
2016-11-03T07:35:10.336Z,132
2016-11-03T07:36:10.033Z,136
2016-11-03T07:37:10.369Z,140
2016-11-03T07:38:11.024Z,140
2016-11-03T07:39:10.089Z,136
2016-11-03T07:40:10.731Z,128
2016-11-03T07:41:10.748Z,120
2016-11-03T07:42:10.505Z,124
2016-11-03T07:43:10.151Z,124
2016-11-03T07:44:10.487Z,124
2016-11-03T07:45:10.500Z,120
2016-11-03T07:46:10.532Z,116
2016-11-03T07:47:10.850Z,112
2016-11-03T07:48:10.546Z,112
2016-11-03T07:49:10.559Z,112
2016-11-03T07:50:10.615Z,108
2016-11-03T07:51:10.906Z,108
2016-11-03T07:52:10.920Z,108
2016-11-03T07:53:10.623Z,112
2016-11-03T07:54:10.968Z,108
2016-11-03T07:55:11.004Z,112
2016-11-03T07:56:10.678Z,116
2016-11-03T07:57:11.001Z,112
2016-11-03T07:58:11.021Z,120
2016-11-03T07:59:10.716Z,124
2016-11-03T08:00:10.419Z,128
2016-11-03T08:01:11.068Z,132
2016-11-03T08:02:11.078Z,136
2016-11-03T08:03:10.776Z,140
2016-11-03T08:04:10.799Z,140
2016-11-03T08:05:11.133Z,140
2016-11-03T08:06:11.142Z,140
2016-11-03T08:07:11.485Z,140
2016-11-03T08:08:10.870Z,144
2016-11-03T08:09:11.191Z,148
2016-11-03T08:10:10.890Z,152
2016-11-03T08:11:10.905Z,156
2016-11-03T08:12:11.245Z,156
2016-11-03T08:13:10.949Z,156
2016-11-03T08:14:10.962Z,156
2016-11-03T08:15:10.987Z,144
2016-11-03T08:16:11.311Z,140
2016-11-03T08:17:11.322Z,136
2016-11-03T08:18:11.335Z,136
2016-11-03T08:19:11.035Z,132
2016-11-03T08:20:11.052Z,136
2016-11-03T08:21:11.390Z,136
2016-11-03T08:22:11.431Z,132
2016-11-03T08:23:11.106Z,132
2016-11-03T08:24:11.748Z,132
2016-11-03T08:25:10.819Z,132
2016-11-03T08:26:11.789Z,132
2016-11-03T08:27:11.808Z,132
2016-11-03T08:28:10.867Z,136
2016-11-03T08:29:11.204Z,140
2016-11-03T08:30:11.549Z,144
2016-11-03T08:31:11.234Z,148
2016-11-03T08:32:11.571Z,152
2016-11-03T08:33:11.899Z,160
2016-11-03T08:34:10.971Z,168
2016-11-03T08:35:10.982Z,180
2016-11-03T08:36:11.310Z,196
2016-11-03T08:37:11.678Z,204
2016-11-03T08:38:11.357Z,220
2016-11-03T08:39:11.997Z,236
2016-11-03T08:40:11.693Z,244
2016-11-03T08:41:11.087Z,260
2016-11-03T08:42:11.726Z,272
2016-11-03T08:43:26.329Z,280
2016-11-03T08:44:12.081Z,292
2016-11-03T08:45:12.118Z,336
2016-11-03T08:46:11.492Z,340
2016-11-03T08:47:11.496Z,340
2016-11-03T08:48:11.511Z,320
2016-11-03T08:49:11.538Z,296
2016-11-03T08:50:11.898Z,292
2016-11-03T08:51:11.572Z,300
2016-11-03T08:52:11.903Z,296
2016-11-03T08:53:11.621Z,300
2016-11-03T08:54:11.949Z,312
2016-11-03T08:55:12.277Z,324
2016-11-03T08:56:11.970Z,332
2016-11-03T08:57:11.664Z,356
2016-11-03T08:58:11.680Z,392
2016-11-03T08:59:11.697Z,432
2016-11-03T09:00:11.723Z,508
2016-11-03T09:01:11.419Z,592
2016-11-03T09:02:11.748Z,692
2016-11-03T09:03:12.090Z,840
2016-11-03T09:04:11.778Z,1040
2016-11-03T09:05:11.802Z,1144
2016-11-03T09:06:12.456Z,1232
2016-11-03T09:07:12.159Z,1204
2016-11-03T09:08:12.167Z,1200
2016-11-03T09:09:11.865Z,1324
2016-11-03T09:10:11.927Z,1368
2016-11-03T09:11:11.584Z,1784
2016-11-03T09:12:11.923Z,2516
2016-11-03T09:13:12.280Z,1576
2016-11-03T09:14:12.285Z,1624
2016-11-03T09:15:11.980Z,1344
2016-11-03T09:16:12.308Z,1400
2016-11-03T09:17:12.645Z,1860
2016-11-03T09:18:12.065Z,1436
2016-11-03T09:19:12.055Z,1632
2016-11-03T09:20:12.411Z,1156
2016-11-03T09:21:12.075Z,2684
2016-11-03T09:22:12.115Z,2004
2016-11-03T09:23:11.897Z,2420
2016-11-03T09:24:12.465Z,1200
2016-11-03T09:25:12.184Z,2024
2016-11-03T09:26:12.261Z,1352
2016-11-03T09:27:12.200Z,1564
2016-11-03T09:28:11.886Z,1848
2016-11-03T09:29:11.935Z,1280
2016-11-03T09:30:11.932Z,1492
2016-11-03T09:31:12.256Z,1704
2016-11-03T09:32:11.972Z,2300
2016-11-03T09:33:12.302Z,2228
2016-11-03T09:34:12.314Z,2100
2016-11-03T09:35:12.972Z,2036
2016-11-03T09:36:12.037Z,2052
2016-11-03T09:37:12.692Z,1824
2016-11-03T09:38:12.698Z,928
2016-11-03T09:39:12.408Z,1920
2016-11-03T09:40:12.661Z,2008
2016-11-03T09:41:12.760Z,1988
2016-11-03T09:42:13.139Z,2044
2016-11-03T09:43:12.799Z,1852
2016-11-03T09:44:12.918Z,2360
2016-11-03T09:45:12.831Z,2612
2016-11-03T09:46:13.210Z,2860
2016-11-03T09:47:12.279Z,2608
2016-11-03T09:48:12.925Z,2484
2016-11-03T09:49:12.935Z,864
2016-11-03T09:50:12.945Z,708
2016-11-03T09:51:13.271Z,704
2016-11-03T09:52:12.390Z,748
2016-11-03T09:53:12.699Z,736
2016-11-03T09:54:12.737Z,676
2016-11-03T09:55:13.060Z,1996
2016-11-03T09:56:13.072Z,784
2016-11-03T09:57:12.765Z,996
2016-11-03T09:58:12.783Z,620
2016-11-03T09:59:13.121Z,900
2016-11-03T10:00:12.821Z,2192
2016-11-03T10:01:12.849Z,2176
2016-11-03T10:02:12.859Z,2324
2016-11-03T10:03:12.878Z,2504
2016-11-03T10:04:13.223Z,744
2016-11-03T10:05:13.553Z,708
2016-11-03T10:06:12.622Z,2012
2016-11-03T10:07:12.977Z,1988
2016-11-03T10:08:13.345Z,1276
2016-11-03T10:09:13.010Z,760
2016-11-03T10:10:13.017Z,652
2016-11-03T10:11:13.045Z,556
2016-11-03T10:12:12.740Z,544
2016-11-03T10:13:13.140Z,1072
2016-11-03T10:14:13.114Z,1996
2016-11-03T10:15:12.825Z,2012
2016-11-03T10:16:13.144Z,1424
2016-11-03T10:17:13.481Z,1800
2016-11-03T10:18:13.837Z,684
2016-11-03T10:19:13.556Z,600
2016-11-03T10:20:13.545Z,512
2016-11-03T10:21:13.277Z,468
2016-11-03T10:22:13.572Z,464
2016-11-03T10:23:13.597Z,416
2016-11-03T10:24:13.111Z,428
2016-11-03T10:25:13.640Z,444
2016-11-03T10:26:13.659Z,476
2016-11-03T10:27:13.414Z,592
2016-11-03T10:28:13.701Z,476
2016-11-03T10:29:13.412Z,476
2016-11-03T10:30:14.059Z,500
2016-11-03T10:31:13.454Z,476
2016-11-03T10:32:13.788Z,432
2016-11-03T10:33:13.803Z,388
2016-11-03T10:34:13.528Z,364
2016-11-03T10:35:13.547Z,360
2016-11-03T10:36:13.861Z,344
2016-11-03T10:37:13.901Z,336
2016-11-03T10:38:14.229Z,348
2016-11-03T10:39:13.616Z,356
2016-11-03T10:40:14.254Z,368
2016-11-03T10:41:13.958Z,400
2016-11-03T10:42:13.657Z,500
2016-11-03T10:43:13.675Z,568
2016-11-03T10:44:14.050Z,1168
2016-11-03T10:45:14.348Z,768
2016-11-03T10:46:13.746Z,496
2016-11-03T10:47:13.760Z,428
2016-11-03T10:48:13.772Z,424
2016-11-03T10:49:13.838Z,432
2016-11-03T10:50:13.828Z,420
2016-11-03T10:51:13.835Z,432
2016-11-03T10:52:14.211Z,424
2016-11-03T10:53:13.874Z,408
2016-11-03T10:54:13.905Z,408
2016-11-03T10:55:14.220Z,428
2016-11-03T10:56:13.930Z,768
2016-11-03T10:57:13.956Z,572
2016-11-03T10:58:13.987Z,1292
2016-11-03T10:59:14.305Z,676
2016-11-03T11:00:14.039Z,1568
2016-11-03T11:01:14.354Z,1012
2016-11-03T11:02:14.063Z,492
2016-11-03T11:03:14.078Z,484
2016-11-03T11:04:14.392Z,460
2016-11-03T11:05:14.744Z,452
2016-11-03T11:06:13.807Z,464
2016-11-03T11:07:14.476Z,468
2016-11-03T11:08:14.165Z,464
2016-11-03T11:09:14.511Z,500
2016-11-03T11:10:13.883Z,472
2016-11-03T11:11:14.219Z,492
2016-11-03T11:12:14.547Z,788
2016-11-03T11:13:14.265Z,504
2016-11-03T11:14:13.975Z,464
2016-11-03T11:15:14.307Z,528
2016-11-03T11:16:13.997Z,1368
2016-11-03T11:17:14.336Z,1564
2016-11-03T11:18:14.364Z,1620
2016-11-03T11:19:14.381Z,1624
2016-11-03T11:20:14.713Z,1616
2016-11-03T11:21:14.733Z,1548
2016-11-03T11:22:14.777Z,1392
2016-11-03T11:23:14.136Z,1404
2016-11-03T11:24:14.518Z,1300
2016-11-03T11:25:14.851Z,1428
2016-11-03T11:26:14.845Z,768
2016-11-03T11:27:14.536Z,1448
2016-11-03T11:28:14.869Z,1404
2016-11-03T11:29:14.926Z,1360
2016-11-03T11:30:14.945Z,1408
2016-11-03T11:31:14.607Z,1436
2016-11-03T11:32:14.959Z,1484
2016-11-03T11:33:14.648Z,1444
2016-11-03T11:34:14.676Z,1436
2016-11-03T11:35:15.362Z,1432
2016-11-03T11:36:14.727Z,1436
2016-11-03T11:37:15.050Z,1492
2016-11-03T11:38:14.426Z,828
2016-11-03T11:39:14.786Z,544
2016-11-03T11:40:15.479Z,476
2016-11-03T11:41:14.535Z,448
2016-11-03T11:42:14.879Z,584
2016-11-03T11:43:14.889Z,440
2016-11-03T11:44:14.874Z,1112
2016-11-03T11:45:15.221Z,608
2016-11-03T11:46:15.224Z,868
2016-11-03T11:47:15.567Z,1372
2016-11-03T11:48:15.056Z,1356
2016-11-03T11:49:14.966Z,1376
2016-11-03T11:50:15.307Z,1392
2016-11-03T11:51:15.331Z,1412
2016-11-03T11:52:15.032Z,1404
2016-11-03T11:53:14.734Z,1104
2016-11-03T11:54:15.082Z,1356
2016-11-03T11:55:14.785Z,1356
2016-11-03T11:56:15.459Z,1260
2016-11-03T11:57:15.161Z,792
2016-11-03T11:58:15.169Z,1248
2016-11-03T11:59:15.186Z,1012
2016-11-03T12:00:15.209Z,540
2016-11-03T12:01:14.902Z,852
2016-11-03T12:02:15.243Z,708
2016-11-03T12:03:15.930Z,1248
2016-11-03T12:04:14.955Z,1256
2016-11-03T12:05:15.623Z,1268
2016-11-03T12:06:15.636Z,1264
2016-11-03T12:07:15.345Z,1256
2016-11-03T12:08:15.374Z,1248
2016-11-03T12:09:15.389Z,1232
2016-11-03T12:10:15.409Z,1192
2016-11-03T12:11:15.436Z,1236
2016-11-03T12:12:15.126Z,1212
2016-11-03T12:13:15.787Z,1200
2016-11-03T12:14:15.495Z,1216
2016-11-03T12:15:15.545Z,1196
2016-11-03T12:16:15.214Z,1196
2016-11-03T12:17:15.232Z,1180
2016-11-03T12:18:16.212Z,1168
2016-11-03T12:19:15.595Z,1084
2016-11-03T12:20:15.614Z,1100
2016-11-03T12:21:15.326Z,1108
2016-11-03T12:22:15.649Z,1124
2016-11-03T12:23:16.019Z,1124
2016-11-03T12:24:16.034Z,1108
2016-11-03T12:25:16.026Z,1120
2016-11-03T12:26:15.464Z,1108
2016-11-03T12:27:15.758Z,1088
2016-11-03T12:28:16.098Z,1068
2016-11-03T12:29:16.112Z,1064
2016-11-03T12:30:15.817Z,1052
2016-11-03T12:31:16.151Z,1052
2016-11-03T12:32:16.181Z,1044
2016-11-03T12:33:15.886Z,1044
2016-11-03T12:34:15.585Z,1036
2016-11-03T12:35:16.570Z,1028
2016-11-03T12:36:16.588Z,1036
2016-11-03T12:37:15.983Z,1032
2016-11-03T12:38:15.674Z,1044
2016-11-03T12:39:15.704Z,1040
2016-11-03T12:40:16.030Z,1028
2016-11-03T12:41:16.372Z,1008
2016-11-03T12:42:15.759Z,972
2016-11-03T12:43:16.736Z,1000
2016-11-03T12:44:16.454Z,984
2016-11-03T12:45:16.140Z,980
2016-11-03T12:46:16.476Z,976
2016-11-03T12:47:16.493Z,960
2016-11-03T12:48:16.519Z,972
2016-11-03T12:49:16.574Z,964
2016-11-03T12:50:16.885Z,960
2016-11-03T12:51:16.588Z,952
2016-11-03T12:52:16.295Z,952
2016-11-03T12:53:16.334Z,952
2016-11-03T12:54:16.982Z,936
2016-11-03T12:55:16.687Z,916
2016-11-03T12:56:16.730Z,908
2016-11-03T12:57:16.745Z,900
2016-11-03T12:58:16.443Z,888
2016-11-03T12:59:16.776Z,880
2016-11-03T13:00:16.156Z,868
2016-11-03T13:01:16.807Z,860
2016-11-03T13:02:16.573Z,868
2016-11-03T13:03:16.552Z,864
2016-11-03T13:04:16.582Z,872
2016-11-03T13:05:16.588Z,868
2016-11-03T13:06:16.936Z,872
2016-11-03T13:07:17.253Z,892
2016-11-03T13:08:16.657Z,884
2016-11-03T13:09:16.350Z,884
2016-11-03T13:10:17.336Z,852
2016-11-03T13:11:16.411Z,836
2016-11-03T13:12:16.744Z,808
2016-11-03T13:13:17.076Z,828
2016-11-03T13:14:16.468Z,812
2016-11-03T13:15:17.134Z,804
2016-11-03T13:16:16.825Z,796
2016-11-03T13:17:16.737Z,788
2016-11-03T13:18:16.878Z,784
2016-11-03T13:19:16.902Z,792
2016-11-03T13:20:16.932Z,692
2016-11-03T13:21:17.265Z,780
2016-11-03T13:22:17.623Z,788
2016-11-03T13:23:16.982Z,788
2016-11-03T13:24:17.002Z,620
2016-11-03T13:25:17.362Z,724
2016-11-03T13:26:17.047Z,320
2016-11-03T13:27:17.079Z,372
2016-11-03T13:28:17.402Z,280
2016-11-03T13:29:17.115Z,264
2016-11-03T13:30:17.764Z,260
2016-11-03T13:31:17.153Z,252
2016-11-03T13:32:17.192Z,236
2016-11-03T13:33:17.644Z,224
2016-11-03T13:34:16.918Z,228
2016-11-03T13:35:17.619Z,228
2016-11-03T13:36:17.261Z,224
2016-11-03T13:37:17.295Z,228
2016-11-03T13:38:17.951Z,232
2016-11-03T13:39:17.355Z,244
2016-11-03T13:40:17.499Z,232
2016-11-03T13:41:17.062Z,228
2016-11-03T13:42:17.405Z,224
2016-11-03T13:43:17.425Z,228
2016-11-03T13:44:18.098Z,232
2016-11-03T13:45:17.772Z,268
2016-11-03T13:46:18.180Z,576
2016-11-03T13:47:17.825Z,620
2016-11-03T13:48:17.871Z,620
2016-11-03T13:49:17.867Z,612
2016-11-03T13:50:17.916Z,596
2016-11-03T13:51:17.589Z,580
2016-11-03T13:52:17.291Z,560
2016-11-03T13:53:17.941Z,568
2016-11-03T13:54:18.003Z,568
2016-11-03T13:55:17.378Z,552
2016-11-03T13:56:18.023Z,536
2016-11-03T13:57:17.732Z,520
2016-11-03T13:58:18.053Z,516
2016-11-03T13:59:18.111Z,520
2016-11-03T14:00:18.096Z,548
2016-11-03T14:01:17.812Z,528
2016-11-03T14:02:17.509Z,444
2016-11-03T14:03:17.564Z,440
2016-11-03T14:04:17.906Z,396
2016-11-03T14:05:18.237Z,360
2016-11-03T14:06:18.605Z,392
2016-11-03T14:07:18.259Z,460
2016-11-03T14:08:18.591Z,432
2016-11-03T14:09:17.991Z,368
2016-11-03T14:10:17.692Z,328